Time;durP1;ratioP1;P1;durP2;ratioP2;P2;SDS_P1;SDS_P2;PMS_P1;PMS_P2;Temp;Humidity;BMP_temperature;BMP_pressure;BME280_temperature;BME280_humidity;BME280_pressure;Samples;Min_cycle;Max_cycle;Signal;HPM_P1;HPM_P2
2022/05/07 00:00:22;;;;;;;;;8.00;8.00;;;;;13.06;72.18;101335.47;5054661;28;45502;-70
2022/05/07 00:02:50;;;;;;;;;8.33;8.00;;;;;13.06;72.17;101334.56;5054835;28;45570;-70
2022/05/07 00:05:18;;;;;;;;;7.67;7.00;;;;;13.15;71.83;101342.75;5054543;28;45434;-71
2022/05/07 00:07:43;;;;;;;;;7.00;7.00;;;;;13.17;71.78;101345.41;5054186;28;45477;-70
2022/05/07 00:10:09;;;;;;;;;9.00;8.00;;;;;13.18;72.08;101329.72;5054302;28;45393;-71
2022/05/07 00:12:35;;;;;;;;;8.00;8.00;;;;;13.20;71.47;101321.91;5054750;28;45260;-71
2022/05/07 00:15:01;;;;;;;;;8.67;7.67;;;;;13.23;71.07;101316.72;5055375;28;45253;-70
2022/05/07 00:20:10;;;;;;;;;7.00;7.00;;;;;13.33;70.84;101322.38;5055808;28;45365;-70
2022/05/07 00:22:36;;;;;;;;;9.33;7.67;;;;;13.35;70.57;101321.50;5056718;28;45415;-78
2022/05/07 00:25:02;;;;;;;;;8.00;8.00;;;;;13.29;70.46;101304.75;5057678;28;46088;-88
2022/05/07 00:27:28;;;;;;;;;8.67;7.67;;;;;13.42;70.14;101320.88;5057820;28;45509;-72
2022/05/07 00:29:54;;;;;;;;;8.00;8.00;;;;;13.39;70.40;101316.44;5057774;28;45434;-71
2022/05/07 00:32:19;;;;;;;;;7.67;7.00;;;;;13.45;70.19;101323.56;5057758;28;45253;-73
2022/05/07 00:34:45;;;;;;;;;9.33;7.67;;;;;13.39;69.84;101302.38;5056215;28;46667;-72
2022/05/07 00:37:10;;;;;;;;;8.33;8.00;;;;;13.48;70.50;101319.31;5057487;28;45485;-71
2022/05/07 00:39:36;;;;;;;;;7.00;7.00;;;;;13.45;70.69;101311.38;5056220;28;45479;-71
2022/05/07 00:42:06;;;;;;;;;7.67;6.00;;;;;13.50;70.90;101316.75;5057708;28;45495;-71
2022/05/07 00:44:34;;;;;;;;;8.00;8.00;;;;;13.47;70.58;101299.19;5057310;28;46131;-71
2022/05/07 00:47:16;;;;;;;;;10.00;9.67;;;;;13.51;70.68;101310.66;5057555;28;45363;-70
2022/05/07 00:49:45;;;;;;;;;7.00;6.33;;;;;13.51;70.64;101297.53;5055447;28;45565;-71
2022/05/07 00:52:10;;;;;;;;;9.00;9.00;;;;;13.51;70.82;101302.78;5057235;28;45284;-70
2022/05/07 00:54:37;;;;;;;;;8.00;8.00;;;;;13.48;71.24;101294.81;5057058;28;46138;-70
2022/05/07 00:57:03;;;;;;;;;7.33;7.33;;;;;13.37;71.23;101270.88;5057178;28;46443;-82
2022/05/07 00:59:29;;;;;;;;;9.00;9.00;;;;;13.50;71.47;101294.00;5055993;28;45442;-71
2022/05/07 01:01:55;;;;;;;;;7.67;7.00;;;;;13.49;71.41;101286.09;5056067;28;45588;-71
2022/05/07 01:04:20;;;;;;;;;8.00;6.67;;;;;13.51;71.58;101289.66;5056754;28;46012;-70
2022/05/07 01:06:46;;;;;;;;;7.33;7.00;;;;;13.51;71.24;101293.19;5050442;28;45422;-71
2022/05/07 01:09:11;;;;;;;;;10.00;8.00;;;;;13.49;70.95;101283.47;5057084;28;45417;-71
2022/05/07 01:11:40;;;;;;;;;11.33;8.67;;;;;13.47;71.63;101279.91;5057220;28;45366;-71
2022/05/07 01:14:06;;;;;;;;;8.00;8.00;;;;;13.48;71.25;101277.31;5056781;28;45956;-71
2022/05/07 01:16:31;;;;;;;;;8.33;8.00;;;;;13.48;71.45;101279.94;5056699;28;45560;-71
2022/05/07 01:18:57;;;;;;;;;9.00;7.67;;;;;13.45;71.12;101271.06;5057270;28;45354;-71
2022/05/07 01:21:22;;;;;;;;;9.00;9.00;;;;;13.43;71.25;101278.03;5056780;28;45478;-71
2022/05/07 01:23:48;;;;;;;;;10.00;9.00;;;;;13.30;71.49;101261.91;5056687;28;45929;-71
2022/05/07 01:26:16;;;;;;;;;9.00;8.00;;;;;13.36;71.74;101276.06;5056470;28;45434;-71
2022/05/07 01:28:41;;;;;;;;;10.33;8.67;;;;;13.30;71.96;101280.28;5056727;28;45359;-71
2022/05/07 01:31:07;;;;;;;;;8.67;7.67;;;;;13.35;71.78;101284.78;5056891;28;45339;-71
2022/05/07 01:33:34;;;;;;;;;9.00;9.00;;;;;13.33;71.95;101272.50;5056420;28;45496;-72
2022/05/07 01:36:07;;;;;;;;;9.00;8.33;;;;;13.28;71.94;101276.69;5056575;28;45523;-72
2022/05/07 01:38:32;;;;;;;;;8.00;7.00;;;;;13.17;72.31;101269.31;5054643;28;45362;-71
2022/05/07 01:40:59;;;;;;;;;8.00;8.00;;;;;13.25;72.34;101281.84;5057188;28;45606;-71
2022/05/07 01:43:27;;;;;;;;;10.25;9.75;;;;;13.23;72.05;101278.28;5056309;28;46196;-81
2022/05/07 01:45:54;;;;;;;;;13.75;12.75;;;;;13.17;71.94;101264.06;5054957;28;45631;-71
2022/05/07 01:48:20;;;;;;;;;10.00;9.00;;;;;13.26;71.83;101267.88;5056475;28;45616;-71
2022/05/07 01:50:46;;;;;;;;;10.33;10.00;;;;;13.30;71.91;101269.78;5056288;28;45687;-71
2022/05/07 01:53:14;;;;;;;;;8.33;8.00;;;;;13.30;71.92;101275.03;5056039;28;45913;-71
2022/05/07 01:55:40;;;;;;;;;12.33;10.00;;;;;13.32;71.87;101268.09;5056029;28;45438;-71
2022/05/07 01:58:06;;;;;;;;;9.00;7.33;;;;;13.36;71.20;101265.56;5055934;28;45395;-71
2022/05/07 02:00:33;;;;;;;;;9.00;9.00;;;;;13.36;71.70;101262.94;5056248;28;45391;-71
2022/05/07 02:02:59;;;;;;;;;7.67;7.67;;;;;13.38;71.70;101262.16;5056412;28;45446;-71
2022/05/07 02:05:27;;;;;;;;;10.00;9.00;;;;;13.42;72.14;101257.88;5056220;28;45432;-71
2022/05/07 02:07:54;;;;;;;;;8.33;8.33;;;;;13.43;71.93;101262.28;5056075;28;45478;-71
2022/05/07 02:10:20;;;;;;;;;9.00;8.00;;;;;13.46;71.75;101259.75;5055994;28;45338;-71
2022/05/07 02:12:46;;;;;;;;;11.33;11.33;;;;;13.38;71.42;101235.03;5055573;28;45495;-71
2022/05/07 02:15:12;;;;;;;;;13.00;11.00;;;;;13.52;71.59;101259.94;5055840;28;45631;-83
2022/05/07 02:17:37;;;;;;;;;9.00;9.00;;;;;13.52;71.28;101252.06;5055785;28;45576;-71
2022/05/07 02:20:03;;;;;;;;;8.67;8.33;;;;;13.52;71.50;101249.44;5055947;28;45607;-72
2022/05/07 02:22:30;;;;;;;;;11.33;9.33;;;;;13.43;71.65;101222.91;5055918;28;45488;-71
2022/05/07 02:24:57;;;;;;;;;11.00;8.33;;;;;13.53;71.75;101240.72;5055852;28;45526;-72
2022/05/07 02:27:23;;;;;;;;;7.00;6.67;;;;;13.54;71.99;101229.38;5057075;28;45298;-71
2022/05/07 02:29:48;;;;;;;;;11.00;9.33;;;;;13.55;72.01;101231.16;5057252;28;45455;-71
2022/05/07 02:32:14;;;;;;;;;9.00;9.00;;;;;13.57;71.68;101232.09;5056911;28;46458;-71
2022/05/07 02:34:41;;;;;;;;;9.00;7.00;;;;;13.59;71.46;101234.72;5057303;28;45339;-71
2022/05/07 02:37:07;;;;;;;;;9.00;8.00;;;;;13.56;71.33;101230.28;5056631;28;45445;-88
2022/05/07 02:39:32;;;;;;;;;7.33;7.00;;;;;13.61;71.44;101231.34;5057131;28;45626;-71
2022/05/07 02:44:43;;;;;;;;;9.67;7.33;;;;;13.51;72.44;101224.03;5057182;28;45497;-71
2022/05/07 02:47:09;;;;;;;;;13.00;12.00;;;;;13.49;72.20;101229.25;5057382;28;45458;-71
2022/05/07 02:49:35;;;;;;;;;12.33;11.00;;;;;13.36;72.33;101199.97;5057104;28;45409;-71
2022/05/07 02:52:01;;;;;;;;;10.67;10.00;;;;;13.45;72.25;101213.34;5055854;28;45320;-71
2022/05/07 02:54:27;;;;;;;;;13.00;12.00;;;;;13.53;71.86;101223.22;5057215;28;45566;-71
2022/05/07 02:56:54;;;;;;;;;16.75;14.50;;;;;13.56;72.17;101224.16;5056949;28;45380;-71
2022/05/07 02:59:19;;;;;;;;;14.25;12.75;;;;;13.54;72.03;101221.50;5056725;28;45487;-71
2022/05/07 03:01:45;;;;;;;;;17.00;15.25;;;;;13.52;72.16;101218.81;5056307;28;46035;-71
2022/05/07 03:04:10;;;;;;;;;16.00;14.00;;;;;13.52;72.18;101210.06;5056910;28;45236;-71
2022/05/07 03:06:39;;;;;;;;;14.33;14.00;;;;;13.51;72.22;101209.19;5057697;28;46164;-73
2022/05/07 03:09:05;;;;;;;;;15.00;14.00;;;;;13.42;72.47;101194.91;5059033;28;45480;-72
2022/05/07 03:11:33;;;;;;;;;12.50;11.25;;;;;13.52;72.41;101212.69;5057535;28;46208;-71
2022/05/07 03:14:02;;;;;;;;;14.75;11.50;;;;;13.52;72.13;101207.44;5057027;28;45221;-71
2022/05/07 03:16:28;;;;;;;;;14.50;12.25;;;;;13.54;71.88;101211.00;5056880;28;45496;-86
2022/05/07 03:18:54;;;;;;;;;10.33;10.00;;;;;13.55;71.84;101207.53;5056981;28;45460;-71
2022/05/07 03:21:19;;;;;;;;;11.67;10.00;;;;;13.57;71.78;101207.56;5057024;28;45360;-71
2022/05/07 03:23:46;;;;;;;;;8.00;8.00;;;;;13.57;71.69;101204.94;5058017;28;45436;-71
2022/05/07 03:26:12;;;;;;;;;8.00;8.00;;;;;13.60;71.79;101202.41;5057237;28;45364;-71
2022/05/07 03:28:38;;;;;;;;;8.00;7.00;;;;;13.60;71.66;101202.41;5057049;28;45369;-71
2022/05/07 03:31:04;;;;;;;;;8.33;8.33;;;;;13.60;71.78;101205.91;5055284;28;45515;-71
2022/05/07 03:33:30;;;;;;;;;10.67;10.00;;;;;13.50;71.73;101191.63;5056898;28;45487;-72
2022/05/07 03:35:56;;;;;;;;;10.00;9.00;;;;;13.56;72.21;101203.16;5056771;28;45482;-71
2022/05/07 03:38:22;;;;;;;;;13.00;11.33;;;;;13.53;71.89;101201.34;5056774;28;45343;-71
2022/05/07 03:40:48;;;;;;;;;13.00;12.00;;;;;13.40;72.15;101180.84;5056234;28;45933;-84
2022/05/07 03:43:14;;;;;;;;;11.50;11.00;;;;;13.52;72.17;101196.94;5056474;28;45391;-71
2022/05/07 03:45:40;;;;;;;;;11.33;8.67;;;;;13.50;72.05;101194.25;5056514;28;45411;-71
2022/05/07 03:48:06;;;;;;;;;11.33;11.33;;;;;13.44;72.35;101187.97;5056421;28;45434;-71
2022/05/07 03:50:32;;;;;;;;;8.67;8.67;;;;;13.44;72.03;101194.09;5056333;28;47715;-71
2022/05/07 03:55:42;;;;;;;;;14.00;12.00;;;;;13.49;71.36;101189.00;5058151;28;45398;-71
2022/05/07 03:58:11;;;;;;;;;14.67;12.00;;;;;13.50;71.66;101193.38;5058357;28;45500;-71
2022/05/07 04:00:37;;;;;;;;;9.33;9.33;;;;;13.50;72.06;101188.13;5057805;27;45528;-71
2022/05/07 04:03:04;;;;;;;;;10.00;9.33;;;;;13.43;72.29;101171.31;5055404;28;45527;-71
2022/05/07 04:05:29;;;;;;;;;11.33;11.00;;;;;13.44;71.95;101169.59;5057970;28;45457;-71
2022/05/07 04:07:55;;;;;;;;;10.00;9.00;;;;;13.46;72.07;101160.91;5058073;28;45369;-70
2022/05/07 04:10:21;;;;;;;;;8.00;8.00;;;;;13.53;72.17;101178.59;5057711;28;46067;-71
2022/05/07 04:12:48;;;;;;;;;10.33;10.00;;;;;13.47;72.23;101161.81;5057828;28;45361;-71
2022/05/07 04:15:14;;;;;;;;;8.00;8.00;;;;;13.44;72.26;101156.47;5057811;28;45611;-71
2022/05/07 04:17:40;;;;;;;;;9.67;8.33;;;;;13.48;72.00;101158.31;5058152;28;45489;-71
2022/05/07 04:20:06;;;;;;;;;8.00;8.00;;;;;13.35;72.26;101156.19;5057320;28;45537;-71
2022/05/07 04:22:32;;;;;;;;;7.33;7.33;;;;;13.26;72.54;101146.31;5057694;28;45611;-71
2022/05/07 04:24:58;;;;;;;;;10.33;9.33;;;;;13.27;73.02;101159.47;5057915;28;45347;-71
2022/05/07 04:27:24;;;;;;;;;9.00;8.00;;;;;13.29;72.93;101169.97;5058711;28;45456;-71
2022/05/07 04:29:49;;;;;;;;;8.67;7.67;;;;;13.29;73.08;101173.56;5058744;28;46269;-71
2022/05/07 04:32:15;;;;;;;;;8.00;8.00;;;;;13.28;72.86;101173.47;5058170;28;45992;-71
2022/05/07 04:34:40;;;;;;;;;8.00;8.00;;;;;13.28;73.03;101182.22;5059635;28;45472;-71
2022/05/07 04:37:06;;;;;;;;;11.00;10.00;;;;;13.28;73.46;101176.09;5059219;28;45233;-71
2022/05/07 04:39:34;;;;;;;;;13.33;11.00;;;;;13.22;73.60;101182.03;5058923;28;46148;-88
2022/05/07 04:42:01;;;;;;;;;12.00;11.33;;;;;13.13;73.84;101181.78;5058774;28;45269;-71
2022/05/07 04:44:26;;;;;;;;;12.67;11.00;;;;;13.12;73.92;101183.50;5058948;28;45349;-71
2022/05/07 04:46:52;;;;;;;;;12.33;11.00;;;;;13.11;73.70;101181.75;5059466;28;45465;-71
2022/05/07 04:49:22;;;;;;;;;9.33;9.33;;;;;13.00;74.03;101158.66;5058827;28;46502;-72
2022/05/07 04:51:50;;;;;;;;;10.33;9.33;;;;;13.15;73.79;101187.97;5058641;28;45519;-71
2022/05/07 04:54:18;;;;;;;;;12.00;9.67;;;;;13.19;73.78;101187.22;5059083;28;45339;-71
2022/05/07 04:56:44;;;;;;;;;14.00;11.33;;;;;13.22;73.31;101187.28;5058976;28;45433;-71
2022/05/07 04:59:10;;;;;;;;;16.00;14.33;;;;;13.19;73.43;101176.72;5074089;28;45346;-71
2022/05/07 05:01:35;;;;;;;;;16.33;11.00;;;;;13.29;73.30;101189.31;5058471;28;45505;-71
2022/05/07 05:04:01;;;;;;;;;10.67;10.00;;;;;13.28;73.24;101191.84;5058799;28;45500;-72
2022/05/07 05:06:26;;;;;;;;;12.67;12.00;;;;;13.28;73.38;101189.22;5059077;28;45452;-72
2022/05/07 05:08:52;;;;;;;;;12.33;11.00;;;;;13.28;73.42;101187.47;5058591;28;46024;-71
2022/05/07 05:11:18;;;;;;;;;11.00;10.67;;;;;13.30;73.28;101195.44;5058715;27;45415;-71
2022/05/07 05:13:43;;;;;;;;;14.00;11.67;;;;;13.23;73.21;101178.59;5058672;28;45337;-71
2022/05/07 05:16:09;;;;;;;;;18.50;18.00;;;;;13.37;73.42;101193.88;5059083;28;45263;-71
2022/05/07 05:18:35;;;;;;;;;33.25;30.75;;;;;13.40;73.26;101200.09;5058466;28;46163;-71
2022/05/07 05:21:00;;;;;;;;;15.33;14.67;;;;;13.43;73.42;101202.81;5074184;28;45586;-71
2022/05/07 05:23:26;;;;;;;;;16.00;14.33;;;;;13.45;73.27;101200.22;5058643;28;45294;-85
2022/05/07 05:25:51;;;;;;;;;15.33;14.33;;;;;13.49;73.00;101207.38;5058922;28;45280;-72
2022/05/07 05:28:17;;;;;;;;;9.00;9.00;;;;;13.46;72.54;101197.66;5058556;28;45993;-72
2022/05/07 05:30:42;;;;;;;;;10.33;9.67;;;;;13.48;72.66;101195.06;5058599;28;45385;-71
2022/05/07 05:33:08;;;;;;;;;11.33;10.67;;;;;13.52;72.08;101197.81;5058869;28;45465;-73
2022/05/07 05:35:34;;;;;;;;;11.00;9.67;;;;;13.59;72.30;101208.47;5058636;28;45657;-71
2022/05/07 05:37:59;;;;;;;;;15.00;13.67;;;;;13.56;72.29;101201.41;5058053;28;45233;-71
2022/05/07 05:40:25;;;;;;;;;13.67;12.00;;;;;13.46;72.78;101196.75;5058348;28;45277;-71
2022/05/07 05:42:50;;;;;;;;;10.00;8.67;;;;;13.50;73.27;101203.88;5058234;28;45472;-70
2022/05/07 05:45:17;;;;;;;;;12.00;12.00;;;;;13.49;73.07;101217.84;5058241;28;45263;-71
2022/05/07 05:47:42;;;;;;;;;10.00;9.67;;;;;13.39;73.09;101200.03;5057581;28;46012;-71
2022/05/07 05:50:08;;;;;;;;;14.67;14.00;;;;;13.39;73.68;101207.91;5057303;28;45564;-70
2022/05/07 05:52:34;;;;;;;;;11.00;10.67;;;;;13.48;73.61;101216.94;5057528;28;45583;-71
2022/05/07 05:54:59;;;;;;;;;15.33;14.33;;;;;13.52;73.59;101215.31;5057386;28;45513;-72
2022/05/07 05:57:26;;;;;;;;;11.67;11.67;;;;;13.56;73.16;101218.91;5057289;28;45467;-71
2022/05/07 05:59:52;;;;;;;;;12.67;12.33;;;;;13.55;72.58;101227.63;5054507;28;45568;-72
2022/05/07 06:02:18;;;;;;;;;15.00;13.00;;;;;13.53;73.40;101222.34;5057214;28;45393;-71
2022/05/07 06:04:44;;;;;;;;;12.00;11.00;;;;;13.55;72.71;101220.66;5057193;28;45509;-71
2022/05/07 06:07:09;;;;;;;;;22.00;19.00;;;;;13.56;73.01;101219.78;5057145;28;46153;-72
2022/05/07 06:09:35;;;;;;;;;15.33;14.33;;;;;13.62;72.94;101226.97;5057016;28;45327;-71
2022/05/07 06:12:01;;;;;;;;;14.00;12.00;;;;;13.60;72.50;101208.53;5056336;28;45442;-71
2022/05/07 06:14:26;;;;;;;;;13.00;12.00;;;;;13.68;72.50;101227.13;5056870;28;45481;-72
2022/05/07 06:16:52;;;;;;;;;10.67;10.00;;;;;13.69;72.14;101226.31;5056689;28;46139;-87
2022/05/07 06:19:17;;;;;;;;;13.00;11.67;;;;;13.74;72.01;101222.06;5056846;28;45497;-75
2022/05/07 06:21:43;;;;;;;;;16.00;10.33;;;;;13.68;71.97;101203.50;5056868;28;45377;-72
2022/05/07 06:29:36;;;;;;;;;11.67;8.67;;;;;13.92;71.63;101219.91;5056688;28;45354;-75
2022/05/07 06:32:02;;;;;;;;;12.33;11.67;;;;;13.89;71.84;101201.47;5056791;28;45420;-80
2022/05/07 06:34:28;;;;;;;;;11.67;11.00;;;;;14.04;71.29;101218.47;5057151;28;45480;-82
2022/05/07 06:36:54;;;;;;;;;10.00;10.00;;;;;14.05;70.54;101218.53;5056023;28;45454;-86
2022/05/07 06:39:21;;;;;;;;;11.33;11.00;;;;;14.10;70.54;101224.78;5056563;28;45419;-87
2022/05/07 06:41:48;;;;;;;;;9.00;8.00;;;;;14.17;70.04;101230.22;5056301;28;45440;-77
2022/05/07 06:44:14;;;;;;;;;21.50;21.50;;;;;14.27;70.19;101227.84;5056751;28;45409;-88
2022/05/07 06:46:39;;;;;;;;;12.00;11.00;;;;;14.38;69.71;101227.22;5056652;28;45663;-77
2022/05/07 06:49:05;;;;;;;;;11.67;11.00;;;;;14.48;69.25;101222.28;5056265;28;45550;-85
2022/05/07 06:51:33;;;;;;;;;11.00;11.00;;;;;14.57;69.46;101219.00;5056164;28;45535;-81
2022/05/07 06:53:59;;;;;;;;;12.67;11.67;;;;;14.70;69.59;101221.06;5055780;28;45369;-83
2022/05/07 06:56:24;;;;;;;;;37.50;33.00;;;;;14.85;68.98;101227.53;5055388;28;45880;-83
2022/05/07 06:58:50;;;;;;;;;15.33;14.33;;;;;14.98;68.71;101226.06;5055050;28;45766;-82
2022/05/07 07:01:15;;;;;;;;;15.00;13.33;;;;;15.19;68.34;101229.19;5055044;28;45506;-81
2022/05/07 07:03:41;;;;;;;;;16.67;16.00;;;;;15.27;67.97;101229.38;5055884;28;45947;-85
2022/05/07 07:06:06;;;;;;;;;15.67;15.00;;;;;15.35;68.27;101234.78;5055289;28;46088;-84
2022/05/07 07:08:32;;;;;;;;;12.33;12.00;;;;;15.36;67.80;101242.72;5055214;28;45601;-73
2022/05/07 07:10:59;;;;;;;;;11.00;11.00;;;;;15.27;67.60;101227.59;5054056;28;45561;-79
2022/05/07 07:13:25;;;;;;;;;12.33;11.00;;;;;15.35;66.89;101234.78;5055666;28;45457;-83
2022/05/07 07:15:50;;;;;;;;;17.00;16.67;;;;;15.45;67.13;101239.41;5055639;28;46260;-83
2022/05/07 07:18:16;;;;;;;;;11.00;11.00;;;;;15.48;66.87;101231.56;5055358;28;45588;-79
2022/05/07 07:20:44;;;;;;;;;11.00;9.67;;;;;15.57;67.12;101241.41;5055363;28;45394;-80
2022/05/07 07:23:11;;;;;;;;;11.67;11.00;;;;;15.65;67.13;101245.94;5054396;28;45593;-81
2022/05/07 07:25:42;;;;;;;;;13.33;11.67;;;;;15.77;66.85;101240.06;5059291;28;45397;-89
2022/05/07 07:28:08;;;;;;;;;14.67;13.33;;;;;15.86;66.00;101228.84;5060148;28;45452;-88
2022/05/07 07:30:34;;;;;;;;;11.00;11.00;;;;;16.18;65.18;101247.00;5060055;28;45457;-83
2022/05/07 07:33:01;;;;;;;;;19.67;18.00;;;;;16.39;64.91;101242.09;5059145;28;45493;-82
2022/05/07 07:35:27;;;;;;;;;11.00;10.67;;;;;16.65;64.04;101239.00;5058910;28;45457;-83
2022/05/07 07:37:53;;;;;;;;;15.67;13.00;;;;;16.86;63.15;101222.66;5060208;28;45531;-80
2022/05/07 07:40:18;;;;;;;;;12.00;12.00;;;;;17.24;62.01;101223.22;5059646;28;45539;-81
2022/05/07 07:42:44;;;;;;;;;11.00;11.00;;;;;17.69;59.87;101221.13;5075247;28;45494;-83
2022/05/07 07:48:05;;;;;;;;;11.67;11.67;;;;;18.98;56.37;101227.63;5059192;28;45509;-83
2022/05/07 07:50:34;;;;;;;;;8.67;8.33;;;;;19.62;53.26;101228.84;5060691;28;45342;-86
2022/05/07 07:53:10;;;;;;;;;13.00;11.67;;;;;19.95;52.82;101222.75;5058980;28;45359;-83
2022/05/07 07:55:39;;;;;;;;;10.33;8.67;;;;;20.17;52.27;101215.72;5058315;28;45503;-84
2022/05/07 07:58:07;;;;;;;;;9.67;9.67;;;;;20.51;51.56;101231.66;5057434;28;45485;-76
2022/05/07 08:00:35;;;;;;;;;10.33;9.00;;;;;21.00;50.85;101222.81;5058238;28;45451;-85
2022/05/07 08:03:05;;;;;;;;;13.00;10.67;;;;;21.76;48.42;101210.13;5057866;28;45541;-83
2022/05/07 08:05:32;;;;;;;;;15.00;14.00;;;;;22.49;46.17;101216.75;5057632;28;46532;-82
2022/05/07 08:13:37;;;;;;;;;9.00;8.00;;;;;27.02;38.91;101230.16;5057546;28;45355;-73
2022/05/07 08:16:04;;;;;;;;;10.00;9.00;;;;;29.52;33.06;101226.56;5057557;28;46146;-80
2022/05/07 08:18:30;;;;;;;;;10.00;9.00;;;;;29.32;33.27;101217.44;5058194;28;45303;-76
2022/05/07 08:20:56;;;;;;;;;10.00;8.00;;;;;27.88;35.08;101222.34;5058488;28;45389;-80
2022/05/07 08:23:24;;;;;;;;;9.00;8.33;;;;;26.46;37.32;101211.97;5058364;28;45276;-81
2022/05/07 08:25:51;;;;;;;;;10.33;9.00;;;;;25.40;38.54;101223.28;5057983;28;46052;-74
2022/05/07 08:28:17;;;;;;;;;6.33;5.33;;;;;24.47;40.56;101229.44;5058355;28;45399;-78
2022/05/07 08:30:43;;;;;;;;;10.00;9.00;;;;;23.71;42.66;101236.75;5058660;28;45545;-79
2022/05/07 08:33:10;;;;;;;;;8.00;8.00;;;;;23.06;44.11;101228.66;5056998;28;45336;-82
2022/05/07 08:35:35;;;;;;;;;8.33;8.00;;;;;22.59;45.33;101233.53;5056650;28;45579;-83
2022/05/07 08:38:01;;;;;;;;;9.00;9.00;;;;;22.04;46.17;101227.72;5058092;28;45444;-74
2022/05/07 08:40:27;;;;;;;;;10.00;10.00;;;;;21.71;47.24;101238.53;5058189;28;45476;-83
2022/05/07 08:42:55;;;;;;;;;10.67;9.00;;;;;21.31;47.96;101231.56;5058366;28;45354;-79
2022/05/07 08:45:21;;;;;;;;;9.00;8.33;;;;;21.03;49.15;101233.44;5057844;28;45454;-84
2022/05/07 08:47:51;;;;;;;;;9.33;9.33;;;;;20.83;48.89;101239.66;5057758;28;45544;-82
2022/05/07 08:50:18;;;;;;;;;13.33;11.00;;;;;20.62;49.75;101223.75;5057186;28;45426;-82
2022/05/07 08:52:45;;;;;;;;;10.00;9.33;;;;;20.69;49.72;101241.44;5057959;28;45542;-82
2022/05/07 08:55:16;;;;;;;;;10.67;9.67;;;;;20.67;50.15;101237.88;5057656;28;45672;-75
2022/05/07 08:57:44;;;;;;;;;12.00;10.00;;;;;20.68;50.05;101229.03;5057795;28;45439;-74
2022/05/07 09:00:10;;;;;;;;;12.33;12.33;;;;;20.81;49.98;101243.19;5058475;28;45874;-75
2022/05/07 09:02:48;;;;;;;;;11.33;11.33;;;;;21.06;49.68;101236.94;5058920;28;45584;-75
2022/05/07 09:05:20;;;;;;;;;9.33;8.33;;;;;21.42;48.78;101232.41;5058836;28;45231;-73
2022/05/07 09:07:58;;;;;;;;;12.00;10.00;;;;;21.87;48.52;101232.25;5056824;28;45351;-75
2022/05/07 09:10:32;;;;;;;;;11.00;11.00;;;;;22.03;47.53;101233.91;5057024;28;45472;-75
2022/05/07 09:13:13;;;;;;;;;11.67;11.33;;;;;21.88;48.17;101234.00;5058430;28;45498;-75
2022/05/07 09:15:52;;;;;;;;;10.33;9.67;;;;;21.65;48.00;101232.34;5058739;28;45414;-74
2022/05/07 09:18:19;;;;;;;;;12.33;11.00;;;;;21.20;48.51;101181.09;5058685;28;45378;-75
2022/05/07 09:21:15;;;;;;;;;10.33;10.33;;;;;21.44;49.31;101233.31;5058580;28;45537;-74
2022/05/07 09:23:44;;;;;;;;;12.00;12.00;;;;;21.36;48.56;101221.78;5059045;28;45316;-75
2022/05/07 09:26:32;;;;;;;;;15.67;15.00;;;;;21.36;48.70;101236.88;5058164;28;45543;-75
2022/05/07 09:28:58;;;;;;;;;16.00;13.00;;;;;21.26;49.03;101226.25;5058174;28;45632;-74
2022/05/07 09:31:26;;;;;;;;;13.67;12.33;;;;;21.27;48.27;101232.47;5058166;28;45465;-74
2022/05/07 09:33:52;;;;;;;;;16.00;13.67;;;;;21.25;48.82;101223.63;5058694;28;45493;-75
2022/05/07 09:36:18;;;;;;;;;16.33;12.00;;;;;21.41;48.56;101227.13;5058177;28;46128;-74
2022/05/07 09:38:43;;;;;;;;;12.33;11.33;;;;;22.04;47.01;101230.38;5058643;28;45763;-74
2022/05/07 09:41:19;;;;;;;;;11.33;11.00;;;;;22.57;47.28;101206.91;5058289;28;45339;-75
2022/05/07 09:43:49;;;;;;;;;15.00;15.00;;;;;22.46;46.01;101197.25;5058510;28;45465;-75
2022/05/07 09:46:15;;;;;;;;;16.00;15.33;;;;;22.67;45.33;101214.81;5058120;28;46220;-75
2022/05/07 09:48:41;;;;;;;;;12.33;12.00;;;;;22.55;46.11;101205.16;5058042;28;45180;-74
2022/05/07 09:51:06;;;;;;;;;16.67;15.00;;;;;22.48;45.92;101204.31;5057877;28;45500;-75
2022/05/07 09:59:00;;;;;;;;;12.67;12.33;;;;;24.63;43.38;101205.13;5057586;28;45292;-75
2022/05/07 10:01:46;;;;;;;;;12.67;12.67;;;;;25.87;41.06;101202.66;5057774;28;45510;-78
2022/05/07 10:04:36;;;;;;;;;16.00;14.00;;;;;29.90;33.83;101186.50;5057693;28;45256;-75
2022/05/07 10:07:13;;;;;;;;;13.67;13.00;;;;;32.10;28.34;101182.97;5057534;28;45497;-75
2022/05/07 10:09:58;;;;;;;;;10.00;10.00;;;;;30.84;32.95;101183.44;5057533;28;45580;-80
2022/05/07 10:12:25;;;;;;;;;13.00;12.33;;;;;29.09;32.71;101186.00;5057349;28;45437;-76
2022/05/07 10:14:51;;;;;;;;;14.33;14.33;;;;;29.04;33.72;101182.56;5058107;28;45371;-78
2022/05/07 10:17:21;;;;;;;;;16.00;15.33;;;;;28.84;33.30;101132.22;5058164;28;45426;-76
2022/05/07 10:19:49;;;;;;;;;13.67;13.00;;;;;28.27;34.83;101165.56;5056615;28;45293;-75
2022/05/07 10:22:18;;;;;;;;;13.00;12.33;;;;;27.69;35.43;101187.09;5057771;28;45217;-73
2022/05/07 10:24:45;;;;;;;;;12.67;12.67;;;;;27.40;35.95;101188.88;5057487;28;45393;-76
2022/05/07 10:27:22;;;;;;;;;14.67;14.33;;;;;28.85;34.90;101158.19;5057340;28;45454;-73
2022/05/07 10:29:48;;;;;;;;;15.67;14.67;;;;;30.08;32.07;101171.41;5057697;28;45394;-72
2022/05/07 10:32:18;;;;;;;;;13.00;11.00;;;;;30.00;31.70;101168.16;5057558;28;45494;-73
2022/05/07 10:34:52;;;;;;;;;14.33;12.67;;;;;28.94;33.54;101173.09;5058205;28;45318;-74
2022/05/07 10:37:18;;;;;;;;;13.00;12.33;;;;;27.76;35.07;101173.44;5057655;28;46283;-74
2022/05/07 10:39:52;;;;;;;;;16.33;16.33;;;;;27.19;36.75;101172.44;5057292;28;45398;-73
2022/05/07 10:42:22;;;;;;;;;17.00;16.67;;;;;26.82;37.24;101164.59;5057657;28;45232;-73
2022/05/07 10:44:49;;;;;;;;;14.00;13.00;;;;;26.93;37.28;101165.16;5057765;28;45430;-73
2022/05/07 10:47:19;;;;;;;;;14.00;12.67;;;;;27.46;36.06;101161.00;5057020;28;46443;-73
2022/05/07 10:50:14;;;;;;;;;13.33;13.00;;;;;27.77;36.09;101160.91;5072424;28;45552;-75
2022/05/07 10:52:39;;;;;;;;;14.33;14.00;;;;;27.40;36.17;101151.31;5047811;28;45414;-73
2022/05/07 10:55:16;;;;;;;;;15.00;14.33;;;;;27.09;35.65;101130.72;5072373;28;45525;-74
2022/05/07 10:57:47;;;;;;;;;16.67;16.67;;;;;28.55;34.39;101141.31;5055648;28;45583;-84
2022/05/07 11:00:17;;;;;;;;;13.00;13.00;;;;;29.38;33.66;101126.66;5056525;28;45473;-73
2022/05/07 11:02:44;;;;;;;;;11.33;11.00;;;;;30.38;32.68;101131.56;5056584;28;45538;-74
2022/05/07 11:05:11;;;;;;;;;15.00;13.67;;;;;30.45;31.11;101121.38;5056831;28;45207;-74
2022/05/07 11:07:40;;;;;;;;;13.00;13.00;;;;;31.00;30.16;101120.72;5056499;28;45302;-74
2022/05/07 11:10:07;;;;;;;;;14.67;14.00;;;;;30.96;28.71;101103.81;5056160;28;45560;-74
2022/05/07 11:12:35;;;;;;;;;14.67;14.00;;;;;30.59;29.63;101110.84;5056246;28;45478;-75
2022/05/07 11:15:02;;;;;;;;;16.00;13.33;;;;;29.85;31.57;101111.28;5056438;28;45498;-73
2022/05/07 11:17:34;;;;;;;;;11.33;11.33;;;;;29.17;33.04;101090.69;5056409;28;46191;-74
2022/05/07 11:20:00;;;;;;;;;14.00;12.33;;;;;28.96;33.65;101112.94;5056243;28;45330;-76
2022/05/07 11:22:30;;;;;;;;;16.00;15.67;;;;;28.68;33.66;101114.91;5072181;28;45453;-74
2022/05/07 11:25:02;;;;;;;;;17.33;15.67;;;;;28.50;34.81;101105.66;5056838;28;45351;-73
2022/05/07 11:27:34;;;;;;;;;18.00;17.00;;;;;28.23;34.74;101104.81;5056003;28;45771;-73
2022/05/07 11:30:03;;;;;;;;;15.33;14.67;;;;;28.15;34.25;101097.00;5056352;28;45240;-73
2022/05/07 11:32:39;;;;;;;;;14.00;13.00;;;;;27.96;34.79;101096.78;5072013;28;45425;-73
2022/05/07 11:35:05;;;;;;;;;14.33;14.00;;;;;27.53;34.96;101074.00;5056240;28;45377;-74
2022/05/07 11:37:41;;;;;;;;;16.67;15.00;;;;;27.62;35.46;101086.25;5056044;28;45441;-74
2022/05/07 11:40:08;;;;;;;;;13.00;13.00;;;;;27.58;35.64;101090.84;5058688;28;45497;-74
2022/05/07 11:42:35;;;;;;;;;16.67;14.33;;;;;27.55;35.43;101086.44;5057381;28;45496;-74